createdAt,value
2022-10-11T00:00:54.415Z,100909.59
2022-10-11T00:03:57.483Z,100909.28
2022-10-11T00:06:59.225Z,100917.75
2022-10-11T00:10:00.904Z,100917.59
2022-10-11T00:13:02.976Z,100913.88
2022-10-11T00:16:08.776Z,100918.63
2022-10-11T00:19:11.969Z,100926.56
2022-10-11T00:22:13.728Z,100923.28
2022-10-11T00:25:16.175Z,100923.84
2022-10-11T00:28:17.820Z,100927.22
2022-10-11T00:31:19.671Z,100930.25
2022-10-11T00:34:22.781Z,100922.63
2022-10-11T00:37:24.449Z,100929.34
2022-10-11T00:40:26.251Z,100930.56
2022-10-11T00:43:29.895Z,100936.34
2022-10-11T00:46:32.053Z,100935.41
2022-10-11T00:49:37.784Z,100939.91
2022-10-11T00:52:43.381Z,100931.56
2022-10-11T00:55:51.434Z,100936.16
2022-10-11T00:58:56.898Z,100949.63
2022-10-11T01:01:58.609Z,100944.06
2022-10-11T01:05:27.742Z,100945.13
2022-10-11T01:08:24.897Z,100942.09
2022-10-11T01:11:29.792Z,100946.59
2022-10-11T01:15:07.030Z,100941.00
2022-10-11T01:18:14.552Z,100945.38
2022-10-11T01:21:29.266Z,100944.72
2022-10-11T01:24:53.211Z,100950.91
2022-10-11T01:28:15.212Z,100947.28
2022-10-11T01:31:24.739Z,100948.25
2022-10-11T01:34:31.393Z,100948.44
2022-10-11T01:37:37.095Z,100944.53
2022-10-11T01:40:45.550Z,100944.81
2022-10-11T01:43:49.143Z,100946.19
2022-10-11T01:46:52.420Z,100953.19
2022-10-11T01:49:56.266Z,100955.38
2022-10-11T01:53:04.606Z,100956.69
2022-10-11T01:56:19.752Z,100963.47
2022-10-11T01:59:34.084Z,100960.97
2022-10-11T02:02:49.725Z,100957.06
2022-10-11T02:05:57.527Z,100962.47
2022-10-11T02:09:08.270Z,100956.47
2022-10-11T02:12:12.172Z,100960.13
2022-10-11T02:15:15.957Z,100964.06
2022-10-11T02:18:24.661Z,100961.78
2022-10-11T02:21:27.532Z,100959.63
2022-10-11T02:24:33.226Z,100970.34
2022-10-11T02:27:38.649Z,100968.63
2022-10-11T02:30:42.071Z,100969.34
2022-10-11T02:33:52.341Z,100967.34
2022-10-11T02:37:03.991Z,100977.44
2022-10-11T02:40:13.447Z,100973.53
2022-10-11T02:43:19.236Z,100972.00
2022-10-11T02:46:22.034Z,100974.31
2022-10-11T02:49:27.053Z,100982.72
2022-10-11T02:52:28.790Z,100980.38
2022-10-11T02:55:30.439Z,100977.16
2022-10-11T02:58:32.027Z,100982.59
2022-10-11T03:01:33.663Z,100990.94
2022-10-11T03:04:36.785Z,100991.84
2022-10-11T03:07:38.514Z,100991.44
2022-10-11T03:10:40.873Z,100991.09
2022-10-11T03:13:42.513Z,100990.88
2022-10-11T03:16:44.158Z,100993.53
2022-10-11T03:19:47.556Z,100995.09
2022-10-11T03:22:49.194Z,100993.41
2022-10-11T03:25:51.971Z,100994.97
2022-10-11T03:28:53.725Z,101001.78
2022-10-11T03:31:55.421Z,101001.94
2022-10-11T03:34:58.380Z,101001.19
2022-10-11T03:37:59.965Z,101008.47
2022-10-11T03:41:01.745Z,101011.84
2022-10-11T03:44:03.609Z,101014.19
2022-10-11T03:47:05.415Z,101014.81
2022-10-11T03:50:09.789Z,101010.34
2022-10-11T03:53:11.508Z,101013.84
2022-10-11T03:56:13.559Z,101011.38
2022-10-11T03:59:15.516Z,101006.28
2022-10-11T04:02:17.200Z,101001.03
2022-10-11T04:05:20.309Z,101006.28
2022-10-11T04:08:21.951Z,101004.56
2022-10-11T04:11:23.671Z,101005.16
2022-10-11T04:14:26.302Z,101013.06
2022-10-11T04:17:28.068Z,101020.75
2022-10-11T04:20:31.044Z,101021.81
2022-10-11T04:23:33.719Z,101017.63
2022-10-11T04:26:35.359Z,101025.66
2022-10-11T04:29:37.008Z,101033.69
2022-10-11T04:32:38.865Z,101028.56
2022-10-11T04:35:41.892Z,101040.28
2022-10-11T04:38:43.502Z,101042.59
2022-10-11T04:41:45.234Z,101042.69
2022-10-11T04:44:46.863Z,101054.09
2022-10-11T04:47:48.909Z,101059.34
2022-10-11T04:50:53.142Z,101056.53
2022-10-11T04:53:54.842Z,101059.84
2022-10-11T04:56:56.490Z,101065.19
2022-10-11T04:59:58.101Z,101072.06
2022-10-11T05:02:59.762Z,101075.81
2022-10-11T05:06:05.975Z,101082.94
2022-10-11T05:09:07.957Z,101082.34
2022-10-11T05:12:09.956Z,101078.53
2022-10-11T05:15:11.719Z,101091.38
2022-10-11T05:18:13.445Z,101095.81
2022-10-11T05:21:18.211Z,101102.09
2022-10-11T05:24:19.684Z,101107.34
2022-10-11T05:27:21.314Z,101101.28
2022-10-11T05:30:22.984Z,101111.78
2022-10-11T05:33:25.232Z,101116.59
2022-10-11T05:36:28.278Z,101112.44
2022-10-11T05:39:30.130Z,101117.69
2022-10-11T05:42:31.854Z,101136.66
2022-10-11T05:45:40.976Z,101133.84
2022-10-11T05:48:42.679Z,101135.09
2022-10-11T05:51:45.694Z,101136.91
2022-10-11T05:54:47.334Z,101141.19
2022-10-11T05:57:52.351Z,101142.66
2022-10-11T06:00:54.821Z,101134.78
2022-10-11T06:03:56.482Z,101152.84
2022-10-11T06:06:59.533Z,101151.63
2022-10-11T06:10:01.603Z,101165.41
2022-10-11T06:13:03.389Z,101166.66
2022-10-11T06:16:06.700Z,101166.41
2022-10-11T06:19:08.802Z,101171.84
2022-10-11T06:22:12.461Z,101177.44
2022-10-11T06:25:14.172Z,101176.16
2022-10-11T06:28:15.834Z,101181.66
2022-10-11T06:31:17.693Z,101183.16
2022-10-11T06:34:19.342Z,101183.31
2022-10-11T06:37:22.381Z,101181.31
2022-10-11T06:40:24.282Z,101195.94
2022-10-11T06:43:25.976Z,101191.09
2022-10-11T06:46:28.271Z,101193.56
2022-10-11T06:49:29.910Z,101200.88
2022-10-11T06:52:33.233Z,101206.50
2022-10-11T06:55:35.140Z,101201.59
2022-10-11T06:58:37.312Z,101205.69
2022-10-11T07:01:39.547Z,101202.56
2022-10-11T07:04:41.292Z,101204.34
2022-10-11T07:07:44.462Z,101206.97
2022-10-11T07:10:46.129Z,101209.25
